Lafayette, TN

3:36 AM CDT on July 11, 2014 (GMT -0500)
Glasgow Municipal (KGLW) Elev 715 ft | 37.03 °N, 85.95 °W | Change Station

Current weather conditions updated 21 minutes ago

Clear
Clear
64 °F
Feels Like 64 °F
N
0
Wind Variable Wind from North

Today is forecast to be Warmer than yesterday.

Today
High -- | Low -- °F
--% Chance of Precip.
Yesterday
High -- | Low -- °F
Precip. -- in
5:34 AM 8:04 PM
Waxing Gibbous, 98% visible
Pressure 30.13 in
Visibility 10.0 miles
Clouds Clear
Dew Point 58 °F
Humidity 83%
Rainfall 0.00 in
Snow Depth Not available.
UV 0 out of 12
Pollen 3.00 out of 12
Ozone Good
PM2.5 Moderate
Flu Activity No Activity
METAR KGLW 110815Z AUTO 00000KT 10SM CLR 18/15 A3013 RMK AO2 T01760147

More Conditions Fewer Conditions

Pressure 30.13 in
Visibility 10.0 miles
Clouds Clear
Dew Point 58 °F
Humidity 83%
Rainfall 0.00 in
Snow Depth Not available.
UV 0 out of 12
Pollen 3.00 out of 12
Ozone Good
PM2.5 Moderate
Flu Activity No Activity
METAR KGLW 110815Z AUTO 00000KT 10SM CLR 18/15 A3013 RMK AO2 T01760147

More Conditions Fewer Conditions

10-Day Weather Forecast

Almanac

Astronomy

Jul. 11, 2014 Rise Set
Actual Time 5:34 AM CDT 8:04 PM CDT
Civil Twilight 5:04 AM CDT 8:33 PM CDT
Nautical Twilight 4:27 AM CDT 9:10 PM CDT
Astronomical Twilight 3:46 AM CDT 9:51 PM CDT
Moon 7:15 PM CDT 4:44 AM CDT
Length of Visible Light 15h 28m
Length of Day
14h 29m
Tomorrow will be 1m 2s shorter.
Waxing Gibbous, 98% of the Moon is Illuminated
Today
Waxing Gibbous
Jul 12
Full
Jul 18
Last Quarter
Jul 26
New
Aug 3
First Quarter

Today's Extremes

State Highs State Lows

Community

WunderPhotos

Upload Photos

1,732,402 photos uploaded!

WunderBlogs® & News

Nearby

Air Quality

  Air Quality AQ Index Pollutant
Yesterday Moderate
OZONE
Yesterday Moderate
PM2.5
Current Moderate
PM2.5
Current Good
OZONE
Friday Moderate
OZONE
Friday Good
PM2.5
Saturday Moderate
OZONE
Saturday Moderate
PM2.5

Snow Depth

Station Depth Elevation
No new snow has been reported.

Earthquake Activity

City Distance Mag. Time & Date
No recent earthquake activity has been reported nearby.
Minimum magnitude displayed is 2.5.

Coastal Water Temperatures

Place Temperature
No Stations Reporting

Nearby Weather Stations

Station Location Temp. Dew Point Humidity Wind Precip. Elev Updated Type
RAWS LAYFAYETTE WORK CENTER TN, Lafayette, TN 67 °F 64 °F 91% North  at  0 mph 0.00 in / hr 970 ft 2:06 AM CDT MADIS
Pumpkintown, Red Boiling Springs, TN 63.1 °F 63 °F 98% North  at  0.0 mph 0.00 in / hr 902 ft 4:24 AM EDT Normal
@WilsonSevereWX, Lebanon, TN 64.0 °F 64 °F 99% NW  at  0.0 mph 0.00 in / hr 570 ft 3:36 AM CDT Rapid Fire

Show More Stations Show Fewer Stations